createdAt,value
2019-05-05T00:01:39.314Z,100729.17
2019-05-05T00:06:44.889Z,100736.67
2019-05-05T00:11:54.777Z,100739.77
2019-05-05T00:17:02.148Z,100738.55
2019-05-05T00:22:07.261Z,100757.44
2019-05-05T00:27:14.825Z,100756.77
2019-05-05T00:32:19.624Z,100754.66
2019-05-05T00:37:25.770Z,100752.23
2019-05-05T00:42:32.606Z,100759.56
2019-05-05T00:47:42.082Z,100766.89
2019-05-05T00:52:47.289Z,100772.33
2019-05-05T00:57:54.660Z,100788.11
2019-05-05T01:02:59.890Z,100789.97
2019-05-05T01:08:07.218Z,100801.05
2019-05-05T01:13:12.569Z,100790.14
2019-05-05T01:18:18.044Z,100796.53
2019-05-05T01:23:24.372Z,100796.52
2019-05-05T01:28:31.497Z,100799.64
2019-05-05T01:33:39.642Z,100808.84
2019-05-05T01:38:46.464Z,100810.53
2019-05-05T01:43:51.776Z,100818.31
2019-05-05T01:48:57.172Z,100813.58
2019-05-05T01:54:02.534Z,100824.16
2019-05-05T01:59:08.009Z,100821.40
2019-05-05T02:04:14.489Z,100837.12
2019-05-05T02:09:20.133Z,100831.72
2019-05-05T02:14:25.815Z,100834.74
2019-05-05T02:19:31.164Z,100838.36
2019-05-05T02:24:37.504Z,100844.55
2019-05-05T02:29:44.725Z,100839.92
2019-05-05T02:34:57.730Z,100856.36
2019-05-05T02:40:07.350Z,100862.73
2019-05-05T02:45:15.509Z,100865.08
2019-05-05T02:50:24.938Z,100875.07
2019-05-05T02:55:32.262Z,100883.88
2019-05-05T03:00:43.757Z,100871.22
2019-05-05T03:05:49.571Z,100871.80
2019-05-05T03:10:55.780Z,100864.78
2019-05-05T03:16:23.751Z,100873.36
2019-05-05T03:21:29.487Z,100880.28
2019-05-05T03:26:34.883Z,100880.84
2019-05-05T03:31:40.916Z,100889.16
2019-05-05T03:36:46.812Z,100890.77
2019-05-05T03:42:08.782Z,100894.13
2019-05-05T03:47:14.745Z,100897.52
2019-05-05T03:52:20.487Z,100902.83
2019-05-05T03:57:26.572Z,100920.42
2019-05-05T04:02:34.139Z,100926.09
2019-05-05T04:07:40.587Z,100928.56
2019-05-05T04:12:46.651Z,100931.69
2019-05-05T04:17:54.163Z,100933.34
2019-05-05T04:22:59.430Z,100954.34
2019-05-05T04:28:05.031Z,100966.28
2019-05-05T04:33:10.821Z,100972.84
2019-05-05T04:38:16.205Z,100976.71
2019-05-05T04:43:21.478Z,100982.53
2019-05-05T04:48:31.239Z,100979.06
2019-05-05T04:53:54.594Z,100990.47
2019-05-05T04:58:59.950Z,100989.24
2019-05-05T05:04:24.310Z,101001.50
2019-05-05T05:09:29.682Z,100996.67
2019-05-05T05:14:35.028Z,101013.99
2019-05-05T05:19:40.313Z,101024.59
2019-05-05T05:24:45.599Z,101028.91
2019-05-05T05:29:50.781Z,101042.74
2019-05-05T05:34:55.999Z,101055.45
2019-05-05T05:40:03.939Z,101069.91
2019-05-05T05:45:23.764Z,101066.45
2019-05-05T05:50:33.956Z,101061.39
2019-05-05T05:55:39.379Z,101069.04
2019-05-05T06:00:44.739Z,101076.73
2019-05-05T06:05:50.075Z,101072.59
2019-05-05T06:10:55.582Z,101089.09
2019-05-05T06:16:00.996Z,101090.66
2019-05-05T06:21:07.234Z,101102.73
2019-05-05T06:26:15.105Z,101101.77
2019-05-05T06:31:19.456Z,101097.02
2019-05-05T06:36:24.615Z,101115.11
2019-05-05T06:41:31.696Z,101111.73
2019-05-05T06:46:45.034Z,101112.31
2019-05-05T06:51:50.337Z,101112.56
2019-05-05T06:56:55.844Z,101118.20
2019-05-05T07:02:04.244Z,101114.06
2019-05-05T07:07:09.456Z,101119.10
2019-05-05T07:12:14.665Z,101121.75
2019-05-05T07:17:20.263Z,101129.43
2019-05-05T07:22:25.486Z,101128.33
2019-05-05T07:27:30.902Z,101141.46
2019-05-05T07:32:36.240Z,101136.56
2019-05-05T07:37:43.543Z,101145.52
2019-05-05T07:42:48.294Z,101148.41
2019-05-05T07:47:54.318Z,101152.45
2019-05-05T07:53:11.392Z,101164.65
2019-05-05T07:58:06.742Z,101170.03
2019-05-05T08:03:14.228Z,101171.44
2019-05-05T08:08:19.043Z,101163.97
2019-05-05T08:13:24.502Z,101163.97
2019-05-05T08:18:31.537Z,101164.65
2019-05-05T08:23:44.852Z,101168.42
2019-05-05T08:28:58.321Z,101167.53
2019-05-05T08:34:03.940Z,101179.56
2019-05-05T08:39:09.535Z,101193.33
2019-05-05T08:44:17.907Z,101184.38
2019-05-05T08:49:24.245Z,101183.28
2019-05-05T08:54:29.589Z,101196.53
2019-05-05T08:59:34.804Z,101203.86
2019-05-05T09:04:39.955Z,101211.81
2019-05-05T09:09:45.393Z,101210.47
2019-05-05T09:14:50.750Z,101204.80
2019-05-05T09:19:56.036Z,101207.92
2019-05-05T09:25:04.322Z,101213.75
2019-05-05T09:30:14.242Z,101211.61
2019-05-05T09:35:19.511Z,101216.98
2019-05-05T09:40:36.604Z,101222.17
2019-05-05T09:45:44.066Z,101217.09
2019-05-05T09:50:48.997Z,101220.30
2019-05-05T09:55:55.792Z,101224.48
2019-05-05T10:01:01.004Z,101227.07
2019-05-05T10:06:06.774Z,101220.19
2019-05-05T10:11:16.368Z,101233.10
2019-05-05T10:16:20.325Z,101234.48
2019-05-05T10:21:25.419Z,101236.99
2019-05-05T10:26:30.976Z,101227.55
2019-05-05T10:31:36.335Z,101249.97
2019-05-05T10:36:41.464Z,101237.75
2019-05-05T10:41:46.767Z,101246.39
2019-05-05T10:46:53.933Z,101246.61
2019-05-05T10:51:58.950Z,101258.35
2019-05-05T10:57:04.256Z,101267.67
2019-05-05T11:02:09.905Z,101275.50
2019-05-05T11:07:15.102Z,101283.09
2019-05-05T11:12:20.776Z,101282.41
2019-05-05T11:17:25.909Z,101275.05
2019-05-05T11:22:31.490Z,101263.86
2019-05-05T11:27:36.681Z,101269.48
2019-05-05T11:32:53.745Z,101274.61
2019-05-05T11:37:59.202Z,101280.34
2019-05-05T11:43:04.754Z,101293.91
2019-05-05T11:48:10.087Z,101295.52
2019-05-05T11:53:15.278Z,101292.34
2019-05-05T11:58:20.567Z,101295.64
2019-05-05T12:03:25.863Z,101299.27
2019-05-05T12:08:31.021Z,101294.06
2019-05-05T12:13:36.493Z,101300.77
2019-05-05T12:18:42.093Z,101294.64
2019-05-05T12:23:47.375Z,101287.22
2019-05-05T12:29:00.324Z,101279.62
2019-05-05T12:34:05.699Z,101284.44
2019-05-05T12:39:14.187Z,101300.45
2019-05-05T12:44:23.495Z,101302.03
2019-05-05T12:49:28.538Z,101293.48
2019-05-05T12:54:34.015Z,101291.94
2019-05-05T12:59:39.517Z,101288.53
2019-05-05T13:04:45.428Z,101276.93
2019-05-05T13:09:50.855Z,101284.02
2019-05-05T13:14:56.268Z,101294.45
2019-05-05T13:20:03.122Z,101294.59
2019-05-05T13:25:19.082Z,101300.33
2019-05-05T13:30:24.623Z,101315.89
2019-05-05T13:35:29.766Z,101310.59
2019-05-05T13:40:35.111Z,101313.56
2019-05-05T13:45:57.181Z,101311.97
2019-05-05T13:51:04.344Z,101307.45
2019-05-05T13:56:12.600Z,101291.34
2019-05-05T14:01:18.304Z,101295.55
2019-05-05T14:06:24.220Z,101293.79
2019-05-05T14:11:29.408Z,101301.83
2019-05-05T14:16:34.867Z,101301.83
2019-05-05T14:21:40.310Z,101305.27
2019-05-05T14:26:45.672Z,101307.48
2019-05-05T14:31:53.573Z,101310.41
2019-05-05T14:37:15.883Z,101306.97
2019-05-05T14:42:21.263Z,101316.81
2019-05-05T14:47:26.498Z,101307.61
2019-05-05T14:52:31.687Z,101313.67
2019-05-05T14:57:37.110Z,101309.61
2019-05-05T15:02:43.874Z,101310.97
2019-05-05T15:08:06.480Z,101320.45
2019-05-05T15:13:11.584Z,101318.80
2019-05-05T15:18:17.089Z,101321.27
2019-05-05T15:23:24.044Z,101327.88
2019-05-05T15:28:29.256Z,101334.19
2019-05-05T15:33:34.962Z,101327.07
2019-05-05T15:38:40.356Z,101321.70
2019-05-05T15:43:45.749Z,101320.48
2019-05-05T15:48:51.387Z,101322.94
2019-05-05T15:53:56.956Z,101328.36
2019-05-05T15:59:04.740Z,101324.53
2019-05-05T16:04:10.408Z,101321.67
2019-05-05T16:09:15.822Z,101332.13
2019-05-05T16:14:23.714Z,101324.97
2019-05-05T16:19:45.945Z,101321.87
2019-05-05T16:25:07.152Z,101327.36
2019-05-05T16:30:17.036Z,101322.45
2019-05-05T16:35:23.772Z,101323.70
2019-05-05T16:40:29.326Z,101327.81
2019-05-05T16:45:34.762Z,101326.06
2019-05-05T16:50:40.168Z,101335.55
2019-05-05T16:55:46.998Z,101333.00
2019-05-05T17:00:54.322Z,101338.05
2019-05-05T17:05:59.627Z,101331.41
2019-05-05T17:11:04.997Z,101338.05
2019-05-05T17:16:21.248Z,101331.78
2019-05-05T17:21:28.467Z,101331.27
2019-05-05T17:26:35.501Z,101341.20
2019-05-05T17:31:40.946Z,101339.16
2019-05-05T17:36:46.236Z,101341.09
2019-05-05T17:41:53.953Z,101339.53
2019-05-05T17:47:05.043Z,101338.30
2019-05-05T17:52:15.083Z,101346.66
2019-05-05T17:57:20.204Z,101358.51
2019-05-05T18:02:25.357Z,101352.67
2019-05-05T18:07:38.297Z,101357.71
2019-05-05T18:12:49.063Z,101359.04
2019-05-05T18:17:54.408Z,101372.08
2019-05-05T18:23:00.748Z,101378.23
2019-05-05T18:28:16.916Z,101377.58
2019-05-05T18:33:14.512Z,101375.73
2019-05-05T18:38:19.782Z,101376.08
2019-05-05T18:43:28.956Z,101383.47
2019-05-05T18:48:34.652Z,101381.85
2019-05-05T18:53:55.060Z,101385.87
2019-05-05T18:59:06.445Z,101391.28
2019-05-05T19:04:13.623Z,101380.30
2019-05-05T19:09:24.831Z,101392.38
2019-05-05T19:14:30.705Z,101392.38
2019-05-05T19:19:38.788Z,101394.17
2019-05-05T19:24:44.208Z,101405.09
2019-05-05T19:29:49.703Z,101398.67
2019-05-05T19:34:54.953Z,101399.80
2019-05-05T19:40:00.191Z,101400.19
2019-05-05T19:45:07.936Z,101401.14
2019-05-05T19:50:17.311Z,101401.12
2019-05-05T19:55:22.693Z,101402.27
2019-05-05T20:00:28.417Z,101405.93
2019-05-05T20:05:34.194Z,101396.77
2019-05-05T20:10:39.857Z,101390.50
2019-05-05T20:15:46.765Z,101399.80
2019-05-05T20:21:03.650Z,101392.72
2019-05-05T20:25:59.426Z,101384.85
2019-05-05T20:31:04.843Z,101387.42
2019-05-05T20:36:14.375Z,101385.06
2019-05-05T20:41:21.643Z,101393.42
2019-05-05T20:46:27.302Z,101395.91
2019-05-05T20:51:33.966Z,101397.11
2019-05-05T20:56:40.417Z,101395.41
2019-05-05T21:01:45.579Z,101395.11
2019-05-05T21:06:50.797Z,101385.67
2019-05-05T21:11:56.038Z,101404.26
2019-05-05T21:17:01.502Z,101401.03
2019-05-05T21:22:24.817Z,101400.33
2019-05-05T21:27:29.969Z,101412.63
2019-05-05T21:32:35.493Z,101407.13
2019-05-05T21:37:40.855Z,101414.82
2019-05-05T21:42:46.247Z,101411.27
2019-05-05T21:47:51.576Z,101405.01
2019-05-05T21:53:14.114Z,101400.16
2019-05-05T21:58:23.307Z,101402.09
2019-05-05T22:03:35.622Z,101386.75
2019-05-05T22:08:41.173Z,101396.06
2019-05-05T22:13:46.632Z,101402.70
2019-05-05T22:18:54.059Z,101397.70
2019-05-05T22:24:19.766Z,101388.70
2019-05-05T22:29:25.218Z,101392.58
2019-05-05T22:34:30.604Z,101387.80
2019-05-05T22:39:35.750Z,101379.97
2019-05-05T22:44:40.980Z,101374.39
2019-05-05T22:49:46.452Z,101377.91
2019-05-05T22:54:51.919Z,101372.83
2019-05-05T22:59:57.242Z,101366.05
2019-05-05T23:05:06.938Z,101364.81
2019-05-05T23:10:14.087Z,101368.11
2019-05-05T23:15:25.248Z,101362.45
2019-05-05T23:20:57.191Z,101363.52
2019-05-05T23:26:04.128Z,101364.27
2019-05-05T23:31:09.357Z,101364.14
2019-05-05T23:36:14.923Z,101358.90
2019-05-05T23:41:23.753Z,101360.16
2019-05-05T23:46:28.815Z,101365.04
2019-05-05T23:51:34.730Z,101356.49
2019-05-05T23:56:40.108Z,101369.28
